sensor_id;sensor_type;location;lat;lon;timestamp;temperature;humidity
66752;SHT31;53663;42.676;23.238;2023-06-10T00:00:12;18.00;80.81
66752;SHT31;53663;42.676;23.238;2023-06-10T00:02:41;18.05;80.65
66752;SHT31;53663;42.676;23.238;2023-06-10T00:05:08;18.11;80.27
66752;SHT31;53663;42.676;23.238;2023-06-10T00:07:33;17.95;80.85
66752;SHT31;53663;42.676;23.238;2023-06-10T00:10:04;17.94;80.67
66752;SHT31;53663;42.676;23.238;2023-06-10T00:12:31;17.87;80.85
66752;SHT31;53663;42.676;23.238;2023-06-10T00:15:06;17.80;81.03
66752;SHT31;53663;42.676;23.238;2023-06-10T00:17:32;17.78;81.12
66752;SHT31;53663;42.676;23.238;2023-06-10T00:19:58;17.77;81.21
66752;SHT31;53663;42.676;23.238;2023-06-10T00:22:24;17.75;81.09
66752;SHT31;53663;42.676;23.238;2023-06-10T00:24:55;17.77;80.97
66752;SHT31;53663;42.676;23.238;2023-06-10T00:27:22;17.83;80.53
66752;SHT31;53663;42.676;23.238;2023-06-10T00:29:47;17.74;80.57
66752;SHT31;53663;42.676;23.238;2023-06-10T00:32:13;17.08;82.73
66752;SHT31;53663;42.676;23.238;2023-06-10T00:34:38;17.04;83.26
66752;SHT31;53663;42.676;23.238;2023-06-10T00:37:04;16.98;83.43
66752;SHT31;53663;42.676;23.238;2023-06-10T00:39:30;17.05;83.47
66752;SHT31;53663;42.676;23.238;2023-06-10T00:41:55;16.75;84.34
66752;SHT31;53663;42.676;23.238;2023-06-10T00:44:21;16.77;84.66
66752;SHT31;53663;42.676;23.238;2023-06-10T00:46:46;16.82;84.42
66752;SHT31;53663;42.676;23.238;2023-06-10T00:49:12;16.85;84.70
66752;SHT31;53663;42.676;23.238;2023-06-10T00:51:38;17.18;83.97
66752;SHT31;53663;42.676;23.238;2023-06-10T00:54:05;17.36;83.09
66752;SHT31;53663;42.676;23.238;2023-06-10T00:56:33;17.44;82.62
66752;SHT31;53663;42.676;23.238;2023-06-10T00:59:01;17.50;82.39
66752;SHT31;53663;42.676;23.238;2023-06-10T01:01:28;17.40;82.99
66752;SHT31;53663;42.676;23.238;2023-06-10T01:03:54;17.42;83.13
66752;SHT31;53663;42.676;23.238;2023-06-10T01:12:13;17.49;82.38
66752;SHT31;53663;42.676;23.238;2023-06-10T01:14:42;17.56;82.18
66752;SHT31;53663;42.676;23.238;2023-06-10T01:17:10;17.63;81.57
66752;SHT31;53663;42.676;23.238;2023-06-10T01:19:37;17.60;81.54
66752;SHT31;53663;42.676;23.238;2023-06-10T01:22:03;17.63;81.42
66752;SHT31;53663;42.676;23.238;2023-06-10T01:24:29;17.69;81.22
66752;SHT31;53663;42.676;23.238;2023-06-10T01:27:01;17.73;80.87
66752;SHT31;53663;42.676;23.238;2023-06-10T01:29:45;17.71;80.64
66752;SHT31;53663;42.676;23.238;2023-06-10T01:32:19;17.74;80.45
66752;SHT31;53663;42.676;23.238;2023-06-10T01:34:47;17.67;80.21
66752;SHT31;53663;42.676;23.238;2023-06-10T01:37:18;17.39;81.96
66752;SHT31;53663;42.676;23.238;2023-06-10T01:39:45;17.59;81.35
66752;SHT31;53663;42.676;23.238;2023-06-10T01:42:12;17.66;81.20
66752;SHT31;53663;42.676;23.238;2023-06-10T01:44:39;17.73;80.87
66752;SHT31;53663;42.676;23.238;2023-06-10T01:47:08;17.70;81.10
66752;SHT31;53663;42.676;23.238;2023-06-10T01:49:34;17.47;81.26
66752;SHT31;53663;42.676;23.238;2023-06-10T01:51:59;17.23;82.19
66752;SHT31;53663;42.676;23.238;2023-06-10T01:54:25;17.16;82.61
66752;SHT31;53663;42.676;23.238;2023-06-10T01:56:51;17.19;82.57
66752;SHT31;53663;42.676;23.238;2023-06-10T01:59:16;17.26;82.51
66752;SHT31;53663;42.676;23.238;2023-06-10T02:01:42;17.15;82.17
66752;SHT31;53663;42.676;23.238;2023-06-10T02:04:09;17.12;82.50
66752;SHT31;53663;42.676;23.238;2023-06-10T02:06:35;17.25;82.14
66752;SHT31;53663;42.676;23.238;2023-06-10T02:09:02;17.32;81.74
66752;SHT31;53663;42.676;23.238;2023-06-10T02:11:28;17.37;81.47
66752;SHT31;53663;42.676;23.238;2023-06-10T02:13:54;17.44;81.13
66752;SHT31;53663;42.676;23.238;2023-06-10T02:16:20;17.46;81.00
66752;SHT31;53663;42.676;23.238;2023-06-10T02:18:46;17.51;81.05
66752;SHT31;53663;42.676;23.238;2023-06-10T02:21:12;17.57;80.76
66752;SHT31;53663;42.676;23.238;2023-06-10T02:23:37;17.63;80.63
66752;SHT31;53663;42.676;23.238;2023-06-10T02:26:03;17.66;80.87
66752;SHT31;53663;42.676;23.238;2023-06-10T02:28:28;17.66;80.57
66752;SHT31;53663;42.676;23.238;2023-06-10T02:30:56;17.71;80.41
66752;SHT31;53663;42.676;23.238;2023-06-10T02:33:22;17.73;80.18
66752;SHT31;53663;42.676;23.238;2023-06-10T02:35:48;17.75;79.96
66752;SHT31;53663;42.676;23.238;2023-06-10T02:38:14;17.78;80.21
66752;SHT31;53663;42.676;23.238;2023-06-10T02:40:40;17.81;79.91
66752;SHT31;53663;42.676;23.238;2023-06-10T02:43:06;17.85;79.92
66752;SHT31;53663;42.676;23.238;2023-06-10T02:45:32;17.90;80.39
66752;SHT31;53663;42.676;23.238;2023-06-10T02:48:00;17.92;80.48
66752;SHT31;53663;42.676;23.238;2023-06-10T02:50:25;17.91;80.18
66752;SHT31;53663;42.676;23.238;2023-06-10T02:53:18;17.90;80.71
66752;SHT31;53663;42.676;23.238;2023-06-10T02:55:49;17.88;81.08
66752;SHT31;53663;42.676;23.238;2023-06-10T02:58:17;17.88;82.29
66752;SHT31;53663;42.676;23.238;2023-06-10T03:00:43;17.94;82.67
66752;SHT31;53663;42.676;23.238;2023-06-10T03:03:11;17.98;83.32
66752;SHT31;53663;42.676;23.238;2023-06-10T03:05:44;17.85;83.10
66752;SHT31;53663;42.676;23.238;2023-06-10T03:08:11;17.81;83.19
66752;SHT31;53663;42.676;23.238;2023-06-10T03:10:39;17.87;84.07
66752;SHT31;53663;42.676;23.238;2023-06-10T03:13:06;17.91;83.81
66752;SHT31;53663;42.676;23.238;2023-06-10T03:15:31;17.94;83.64
66752;SHT31;53663;42.676;23.238;2023-06-10T03:18:00;17.91;83.47
66752;SHT31;53663;42.676;23.238;2023-06-10T03:20:26;17.75;83.86
66752;SHT31;53663;42.676;23.238;2023-06-10T03:22:53;17.59;84.41
66752;SHT31;53663;42.676;23.238;2023-06-10T03:25:19;17.56;84.49
66752;SHT31;53663;42.676;23.238;2023-06-10T03:27:49;17.46;84.39
66752;SHT31;53663;42.676;23.238;2023-06-10T03:30:15;17.46;84.70
66752;SHT31;53663;42.676;23.238;2023-06-10T03:32:42;17.32;85.03
66752;SHT31;53663;42.676;23.238;2023-06-10T03:35:10;17.11;85.57
66752;SHT31;53663;42.676;23.238;2023-06-10T03:37:37;17.14;85.75
66752;SHT31;53663;42.676;23.238;2023-06-10T03:40:03;17.20;85.54
66752;SHT31;53663;42.676;23.238;2023-06-10T03:42:32;17.36;85.36
66752;SHT31;53663;42.676;23.238;2023-06-10T03:44:58;17.46;84.85
66752;SHT31;53663;42.676;23.238;2023-06-10T03:47:24;17.60;84.23
66752;SHT31;53663;42.676;23.238;2023-06-10T03:49:51;17.63;84.31
66752;SHT31;53663;42.676;23.238;2023-06-10T03:52:17;17.69;83.50
66752;SHT31;53663;42.676;23.238;2023-06-10T03:54:43;17.60;83.96
66752;SHT31;53663;42.676;23.238;2023-06-10T03:57:08;17.54;84.04
66752;SHT31;53663;42.676;23.238;2023-06-10T03:59:34;17.60;84.14
66752;SHT31;53663;42.676;23.238;2023-06-10T04:01:59;17.62;84.19
66752;SHT31;53663;42.676;23.238;2023-06-10T04:04:26;17.59;84.04
66752;SHT31;53663;42.676;23.238;2023-06-10T04:06:51;17.51;84.27
66752;SHT31;53663;42.676;23.238;2023-06-10T04:09:17;17.57;84.27
66752;SHT31;53663;42.676;23.238;2023-06-10T04:11:43;17.67;83.61
66752;SHT31;53663;42.676;23.238;2023-06-10T04:14:08;17.78;83.60
66752;SHT31;53663;42.676;23.238;2023-06-10T04:16:34;17.90;83.77
66752;SHT31;53663;42.676;23.238;2023-06-10T04:19:01;17.84;83.75
66752;SHT31;53663;42.676;23.238;2023-06-10T04:21:27;17.70;84.26
66752;SHT31;53663;42.676;23.238;2023-06-10T04:23:53;17.77;84.09
66752;SHT31;53663;42.676;23.238;2023-06-10T04:26:19;17.78;84.25
66752;SHT31;53663;42.676;23.238;2023-06-10T04:28:44;17.80;83.93
66752;SHT31;53663;42.676;23.238;2023-06-10T04:31:10;17.87;83.70
66752;SHT31;53663;42.676;23.238;2023-06-10T04:33:37;17.84;83.94
66752;SHT31;53663;42.676;23.238;2023-06-10T04:36:04;17.77;84.17
66752;SHT31;53663;42.676;23.238;2023-06-10T04:38:32;17.75;84.01
66752;SHT31;53663;42.676;23.238;2023-06-10T04:40:59;18.02;82.80
66752;SHT31;53663;42.676;23.238;2023-06-10T04:43:29;18.09;82.38
66752;SHT31;53663;42.676;23.238;2023-06-10T04:45:57;18.25;82.13
66752;SHT31;53663;42.676;23.238;2023-06-10T04:48:23;18.09;82.80
66752;SHT31;53663;42.676;23.238;2023-06-10T04:50:50;18.18;82.94
66752;SHT31;53663;42.676;23.238;2023-06-10T04:53:17;18.32;81.68
66752;SHT31;53663;42.676;23.238;2023-06-10T04:55:46;18.38;81.54
66752;SHT31;53663;42.676;23.238;2023-06-10T04:58:11;18.08;82.23
66752;SHT31;53663;42.676;23.238;2023-06-10T05:00:37;18.11;82.20
66752;SHT31;53663;42.676;23.238;2023-06-10T05:03:02;18.00;82.15
66752;SHT31;53663;42.676;23.238;2023-06-10T05:05:28;18.09;82.72
66752;SHT31;53663;42.676;23.238;2023-06-10T05:07:53;18.12;82.47
66752;SHT31;53663;42.676;23.238;2023-06-10T05:10:19;18.19;81.82
66752;SHT31;53663;42.676;23.238;2023-06-10T05:12:45;18.38;81.61
66752;SHT31;53663;42.676;23.238;2023-06-10T05:15:11;18.25;80.99
66752;SHT31;53663;42.676;23.238;2023-06-10T05:17:37;17.90;82.50
66752;SHT31;53663;42.676;23.238;2023-06-10T05:20:03;17.78;83.30
66752;SHT31;53663;42.676;23.238;2023-06-10T05:22:28;17.67;83.80
66752;SHT31;53663;42.676;23.238;2023-06-10T05:24:54;17.73;83.52
66752;SHT31;53663;42.676;23.238;2023-06-10T05:27:20;17.69;83.06
66752;SHT31;53663;42.676;23.238;2023-06-10T05:29:46;17.91;82.84
66752;SHT31;53663;42.676;23.238;2023-06-10T05:32:12;18.21;81.98
66752;SHT31;53663;42.676;23.238;2023-06-10T05:34:37;18.43;81.67
66752;SHT31;53663;42.676;23.238;2023-06-10T05:37:03;18.70;81.05
66752;SHT31;53663;42.676;23.238;2023-06-10T05:39:29;18.84;80.57
66752;SHT31;53663;42.676;23.238;2023-06-10T05:41:55;19.00;79.50
66752;SHT31;53663;42.676;23.238;2023-06-10T05:44:20;19.07;79.37
66752;SHT31;53663;42.676;23.238;2023-06-10T05:46:46;19.06;78.82
66752;SHT31;53663;42.676;23.238;2023-06-10T05:49:11;19.22;78.41
66752;SHT31;53663;42.676;23.238;2023-06-10T05:51:37;18.81;78.80
66752;SHT31;53663;42.676;23.238;2023-06-10T05:54:03;18.98;79.03
66752;SHT31;53663;42.676;23.238;2023-06-10T05:56:29;19.28;78.21
66752;SHT31;53663;42.676;23.238;2023-06-10T05:58:54;19.41;77.69
66752;SHT31;53663;42.676;23.238;2023-06-10T06:01:20;19.56;77.06
66752;SHT31;53663;42.676;23.238;2023-06-10T06:03:45;19.44;77.30
66752;SHT31;53663;42.676;23.238;2023-06-10T06:06:11;19.52;76.20
66752;SHT31;53663;42.676;23.238;2023-06-10T06:08:36;19.72;75.27
66752;SHT31;53663;42.676;23.238;2023-06-10T06:11:02;19.82;74.56
66752;SHT31;53663;42.676;23.238;2023-06-10T06:13:28;19.52;75.97
66752;SHT31;53663;42.676;23.238;2023-06-10T06:15:53;19.48;76.58
66752;SHT31;53663;42.676;23.238;2023-06-10T06:18:19;19.62;76.40
66752;SHT31;53663;42.676;23.238;2023-06-10T06:20:44;19.68;76.57
66752;SHT31;53663;42.676;23.238;2023-06-10T06:23:10;19.48;77.51
66752;SHT31;53663;42.676;23.238;2023-06-10T06:25:35;19.66;77.05
66752;SHT31;53663;42.676;23.238;2023-06-10T06:28:02;20.09;75.64
66752;SHT31;53663;42.676;23.238;2023-06-10T06:30:28;20.31;74.40
66752;SHT31;53663;42.676;23.238;2023-06-10T06:32:53;20.23;74.15
66752;SHT31;53663;42.676;23.238;2023-06-10T06:35:19;20.27;73.90
66752;SHT31;53663;42.676;23.238;2023-06-10T06:37:44;20.48;73.72
66752;SHT31;53663;42.676;23.238;2023-06-10T06:40:24;20.64;72.91
66752;SHT31;53663;42.676;23.238;2023-06-10T06:42:50;20.82;72.24
66752;SHT31;53663;42.676;23.238;2023-06-10T06:45:35;20.85;72.57
66752;SHT31;53663;42.676;23.238;2023-06-10T06:48:01;20.82;73.15
66752;SHT31;53663;42.676;23.238;2023-06-10T06:50:26;21.27;71.35
66752;SHT31;53663;42.676;23.238;2023-06-10T06:52:52;21.58;70.24
66752;SHT31;53663;42.676;23.238;2023-06-10T06:55:17;21.74;69.63
66752;SHT31;53663;42.676;23.238;2023-06-10T06:57:43;21.84;69.89
66752;SHT31;53663;42.676;23.238;2023-06-10T07:00:09;22.10;68.96
66752;SHT31;53663;42.676;23.238;2023-06-10T07:02:35;22.16;69.34
66752;SHT31;53663;42.676;23.238;2023-06-10T07:05:01;22.53;66.90
66752;SHT31;53663;42.676;23.238;2023-06-10T07:07:26;22.59;65.87
66752;SHT31;53663;42.676;23.238;2023-06-10T07:09:52;22.80;64.71
66752;SHT31;53663;42.676;23.238;2023-06-10T07:12:18;22.81;62.18
66752;SHT31;53663;42.676;23.238;2023-06-10T07:14:44;22.84;62.01
66752;SHT31;53663;42.676;23.238;2023-06-10T07:17:10;23.04;64.02
66752;SHT31;53663;42.676;23.238;2023-06-10T07:19:35;23.24;63.86
66752;SHT31;53663;42.676;23.238;2023-06-10T07:22:01;23.49;62.35
66752;SHT31;53663;42.676;23.238;2023-06-10T07:24:26;23.42;57.52
66752;SHT31;53663;42.676;23.238;2023-06-10T07:26:52;22.90;59.59
66752;SHT31;53663;42.676;23.238;2023-06-10T07:29:17;22.77;60.55
66752;SHT31;53663;42.676;23.238;2023-06-10T07:31:43;23.25;60.20
66752;SHT31;53663;42.676;23.238;2023-06-10T07:34:08;23.77;61.27
66752;SHT31;53663;42.676;23.238;2023-06-10T07:36:34;24.24;58.31
66752;SHT31;53663;42.676;23.238;2023-06-10T07:38:59;24.48;58.06
66752;SHT31;53663;42.676;23.238;2023-06-10T07:41:25;24.62;56.40
66752;SHT31;53663;42.676;23.238;2023-06-10T07:43:52;24.52;56.70
66752;SHT31;53663;42.676;23.238;2023-06-10T07:46:23;24.51;56.55
66752;SHT31;53663;42.676;23.238;2023-06-10T07:48:49;25.13;52.57
66752;SHT31;53663;42.676;23.238;2023-06-10T07:51:16;25.36;53.06
66752;SHT31;53663;42.676;23.238;2023-06-10T07:53:42;25.48;50.87
66752;SHT31;53663;42.676;23.238;2023-06-10T07:56:07;25.58;51.82
66752;SHT31;53663;42.676;23.238;2023-06-10T07:58:33;24.88;54.16
66752;SHT31;53663;42.676;23.238;2023-06-10T08:00:58;24.90;54.27
66752;SHT31;53663;42.676;23.238;2023-06-10T08:03:24;25.47;53.18
66752;SHT31;53663;42.676;23.238;2023-06-10T08:05:49;25.99;52.62
66752;SHT31;53663;42.676;23.238;2023-06-10T08:08:15;26.44;49.88
66752;SHT31;53663;42.676;23.238;2023-06-10T08:10:40;26.40;48.15
66752;SHT31;53663;42.676;23.238;2023-06-10T08:13:07;25.64;49.58
66752;SHT31;53663;42.676;23.238;2023-06-10T08:15:33;25.61;51.74
66752;SHT31;53663;42.676;23.238;2023-06-10T08:17:59;25.61;51.56
66752;SHT31;53663;42.676;23.238;2023-06-10T08:20:24;25.55;53.25
66752;SHT31;53663;42.676;23.238;2023-06-10T08:22:50;25.71;53.75
66752;SHT31;53663;42.676;23.238;2023-06-10T08:25:16;25.85;51.41
66752;SHT31;53663;42.676;23.238;2023-06-10T08:27:41;25.99;51.11
66752;SHT31;53663;42.676;23.238;2023-06-10T08:30:07;25.92;50.08
66752;SHT31;53663;42.676;23.238;2023-06-10T08:32:33;25.96;52.41
66752;SHT31;53663;42.676;23.238;2023-06-10T08:34:59;26.16;48.54
66752;SHT31;53663;42.676;23.238;2023-06-10T08:37:24;25.75;47.11
66752;SHT31;53663;42.676;23.238;2023-06-10T08:39:50;25.85;47.75
66752;SHT31;53663;42.676;23.238;2023-06-10T08:42:31;25.80;47.38
66752;SHT31;53663;42.676;23.238;2023-06-10T08:45:01;25.86;48.47
66752;SHT31;53663;42.676;23.238;2023-06-10T08:47:29;25.75;48.87
66752;SHT31;53663;42.676;23.238;2023-06-10T08:49:57;25.92;50.26
66752;SHT31;53663;42.676;23.238;2023-06-10T08:52:29;26.18;51.49
66752;SHT31;53663;42.676;23.238;2023-06-10T08:55:03;25.77;50.70
66752;SHT31;53663;42.676;23.238;2023-06-10T08:57:30;25.89;51.57
66752;SHT31;53663;42.676;23.238;2023-06-10T08:59:57;26.06;50.96
66752;SHT31;53663;42.676;23.238;2023-06-10T09:02:23;25.68;50.30
66752;SHT31;53663;42.676;23.238;2023-06-10T09:04:49;25.57;50.24
66752;SHT31;53663;42.676;23.238;2023-06-10T09:07:19;25.58;51.29
66752;SHT31;53663;42.676;23.238;2023-06-10T09:09:45;25.46;50.39
66752;SHT31;53663;42.676;23.238;2023-06-10T09:12:13;26.05;50.69
66752;SHT31;53663;42.676;23.238;2023-06-10T09:14:39;26.56;48.58
66752;SHT31;53663;42.676;23.238;2023-06-10T09:17:05;26.81;48.06
66752;SHT31;53663;42.676;23.238;2023-06-10T09:19:32;27.01;47.85
66752;SHT31;53663;42.676;23.238;2023-06-10T09:21:58;26.95;46.29
66752;SHT31;53663;42.676;23.238;2023-06-10T09:24:24;26.54;46.25
66752;SHT31;53663;42.676;23.238;2023-06-10T09:26:49;26.84;46.40
66752;SHT31;53663;42.676;23.238;2023-06-10T09:29:16;26.98;44.90
66752;SHT31;53663;42.676;23.238;2023-06-10T09:31:43;27.22;45.17
66752;SHT31;53663;42.676;23.238;2023-06-10T09:34:14;26.73;47.75
66752;SHT31;53663;42.676;23.238;2023-06-10T09:36:40;26.83;48.45
66752;SHT31;53663;42.676;23.238;2023-06-10T09:39:16;27.02;45.89
66752;SHT31;53663;42.676;23.238;2023-06-10T09:41:43;26.12;44.84
66752;SHT31;53663;42.676;23.238;2023-06-10T09:44:17;26.59;44.15
66752;SHT31;53663;42.676;23.238;2023-06-10T09:46:46;27.28;43.39
66752;SHT31;53663;42.676;23.238;2023-06-10T09:49:12;27.07;42.44
66752;SHT31;53663;42.676;23.238;2023-06-10T09:51:38;27.14;42.42
66752;SHT31;53663;42.676;23.238;2023-06-10T09:54:13;27.42;44.83
66752;SHT31;53663;42.676;23.238;2023-06-10T09:56:39;27.80;41.23
66752;SHT31;53663;42.676;23.238;2023-06-10T09:59:07;28.18;40.04
66752;SHT31;53663;42.676;23.238;2023-06-10T10:01:34;28.13;40.81
66752;SHT31;53663;42.676;23.238;2023-06-10T10:03:59;27.76;40.97
66752;SHT31;53663;42.676;23.238;2023-06-10T10:06:26;27.56;43.99
66752;SHT31;53663;42.676;23.238;2023-06-10T10:08:52;27.80;42.02
66752;SHT31;53663;42.676;23.238;2023-06-10T10:11:20;27.05;43.04
66752;SHT31;53663;42.676;23.238;2023-06-10T10:13:50;27.02;41.84
66752;SHT31;53663;42.676;23.238;2023-06-10T10:16:20;27.08;41.12
66752;SHT31;53663;42.676;23.238;2023-06-10T10:18:52;26.80;42.73
66752;SHT31;53663;42.676;23.238;2023-06-10T10:21:22;26.81;43.07
66752;SHT31;53663;42.676;23.238;2023-06-10T10:24:07;26.40;43.58
66752;SHT31;53663;42.676;23.238;2023-06-10T10:26:35;26.31;44.30
66752;SHT31;53663;42.676;23.238;2023-06-10T10:29:11;26.56;44.03
66752;SHT31;53663;42.676;23.238;2023-06-10T10:31:42;26.90;43.71
66752;SHT31;53663;42.676;23.238;2023-06-10T10:34:12;26.95;44.00
66752;SHT31;53663;42.676;23.238;2023-06-10T10:36:40;27.21;43.17
66752;SHT31;53663;42.676;23.238;2023-06-10T10:39:06;27.55;40.57
66752;SHT31;53663;42.676;23.238;2023-06-10T10:41:32;27.55;41.39
66752;SHT31;53663;42.676;23.238;2023-06-10T10:43:59;27.39;41.39
66752;SHT31;53663;42.676;23.238;2023-06-10T10:46:25;27.38;43.04
66752;SHT31;53663;42.676;23.238;2023-06-10T10:48:55;27.98;41.51
66752;SHT31;53663;42.676;23.238;2023-06-10T10:51:23;28.35;40.76
66752;SHT31;53663;42.676;23.238;2023-06-10T10:54:14;28.83;40.50
66752;SHT31;53663;42.676;23.238;2023-06-10T10:59:59;29.27;38.12
66752;SHT31;53663;42.676;23.238;2023-06-10T11:05:02;28.72;39.06
66752;SHT31;53663;42.676;23.238;2023-06-10T11:07:31;28.44;38.31
66752;SHT31;53663;42.676;23.238;2023-06-10T11:10:07;28.58;38.58
66752;SHT31;53663;42.676;23.238;2023-06-10T11:15:32;26.95;41.68
66752;SHT31;53663;42.676;23.238;2023-06-10T11:26:15;27.59;39.85
66752;SHT31;53663;42.676;23.238;2023-06-10T11:29:04;27.73;40.05
66752;SHT31;53663;42.676;23.238;2023-06-10T11:31:41;27.19;40.88
66752;SHT31;53663;42.676;23.238;2023-06-10T11:34:07;26.97;42.03
66752;SHT31;53663;42.676;23.238;2023-06-10T11:36:34;27.12;38.49
66752;SHT31;53663;42.676;23.238;2023-06-10T11:39:05;27.65;40.38
66752;SHT31;53663;42.676;23.238;2023-06-10T11:41:31;27.82;39.11
66752;SHT31;53663;42.676;23.238;2023-06-10T11:44:07;27.60;39.47
66752;SHT31;53663;42.676;23.238;2023-06-10T11:46:33;26.31;41.88
66752;SHT31;53663;42.676;23.238;2023-06-10T11:48:59;26.36;40.51
66752;SHT31;53663;42.676;23.238;2023-06-10T11:51:26;26.44;40.60
66752;SHT31;53663;42.676;23.238;2023-06-10T11:53:53;26.60;42.01
66752;SHT31;53663;42.676;23.238;2023-06-10T11:56:28;27.00;42.67
66752;SHT31;53663;42.676;23.238;2023-06-10T11:58:57;27.05;43.39
66752;SHT31;53663;42.676;23.238;2023-06-10T12:01:26;27.42;42.93
66752;SHT31;53663;42.676;23.238;2023-06-10T12:04:08;27.62;40.67
66752;SHT31;53663;42.676;23.238;2023-06-10T12:06:45;27.52;41.28
66752;SHT31;53663;42.676;23.238;2023-06-10T12:09:28;27.05;42.98
66752;SHT31;53663;42.676;23.238;2023-06-10T12:12:01;27.04;42.36
66752;SHT31;53663;42.676;23.238;2023-06-10T12:14:49;26.46;42.74
66752;SHT31;53663;42.676;23.238;2023-06-10T12:17:15;26.80;42.61
66752;SHT31;53663;42.676;23.238;2023-06-10T12:19:40;27.35;41.18
66752;SHT31;53663;42.676;23.238;2023-06-10T12:22:06;27.12;40.71
66752;SHT31;53663;42.676;23.238;2023-06-10T12:24:31;26.81;41.18
66752;SHT31;53663;42.676;23.238;2023-06-10T12:26:57;26.87;40.39
66752;SHT31;53663;42.676;23.238;2023-06-10T12:29:24;26.97;42.26
66752;SHT31;53663;42.676;23.238;2023-06-10T12:32:16;26.84;42.81
66752;SHT31;53663;42.676;23.238;2023-06-10T12:34:42;27.05;41.18
66752;SHT31;53663;42.676;23.238;2023-06-10T12:37:11;27.01;39.93
66752;SHT31;53663;42.676;23.238;2023-06-10T12:39:41;27.19;39.11
66752;SHT31;53663;42.676;23.238;2023-06-10T12:42:08;27.15;40.01
66752;SHT31;53663;42.676;23.238;2023-06-10T12:44:39;27.08;40.30
66752;SHT31;53663;42.676;23.238;2023-06-10T12:47:09;27.08;38.76
66752;SHT31;53663;42.676;23.238;2023-06-10T12:49:36;27.11;39.30
66752;SHT31;53663;42.676;23.238;2023-06-10T12:52:02;27.02;38.08
66752;SHT31;53663;42.676;23.238;2023-06-10T12:54:27;26.65;37.98
66752;SHT31;53663;42.676;23.238;2023-06-10T12:56:53;26.91;38.74
66752;SHT31;53663;42.676;23.238;2023-06-10T12:59:18;26.84;38.99
66752;SHT31;53663;42.676;23.238;2023-06-10T13:01:50;26.84;41.30
66752;SHT31;53663;42.676;23.238;2023-06-10T13:04:16;26.88;38.63
66752;SHT31;53663;42.676;23.238;2023-06-10T13:06:42;26.74;41.78
66752;SHT31;53663;42.676;23.238;2023-06-10T13:09:08;26.69;43.10
66752;SHT31;53663;42.676;23.238;2023-06-10T13:11:33;26.49;43.74
66752;SHT31;53663;42.676;23.238;2023-06-10T13:14:00;26.26;46.86
66752;SHT31;53663;42.676;23.238;2023-06-10T13:16:28;26.02;47.77
66752;SHT31;53663;42.676;23.238;2023-06-10T13:18:54;25.55;48.09
66752;SHT31;53663;42.676;23.238;2023-06-10T13:21:19;25.09;48.16
66752;SHT31;53663;42.676;23.238;2023-06-10T13:23:45;24.73;49.29
66752;SHT31;53663;42.676;23.238;2023-06-10T13:26:14;24.41;51.05
66752;SHT31;53663;42.676;23.238;2023-06-10T13:28:40;24.18;52.08
66752;SHT31;53663;42.676;23.238;2023-06-10T13:31:05;24.07;52.53
66752;SHT31;53663;42.676;23.238;2023-06-10T13:33:31;23.96;53.53
66752;SHT31;53663;42.676;23.238;2023-06-10T13:35:56;23.77;54.64
66752;SHT31;53663;42.676;23.238;2023-06-10T13:38:22;23.52;56.00
66752;SHT31;53663;42.676;23.238;2023-06-10T13:40:47;23.43;58.08
66752;SHT31;53663;42.676;23.238;2023-06-10T13:43:13;23.32;59.70
66752;SHT31;53663;42.676;23.238;2023-06-10T13:45:38;23.21;60.62
66752;SHT31;53663;42.676;23.238;2023-06-10T13:48:04;23.05;61.56
66752;SHT31;53663;42.676;23.238;2023-06-10T13:50:31;22.93;62.16
66752;SHT31;53663;42.676;23.238;2023-06-10T13:52:56;22.97;63.65
66752;SHT31;53663;42.676;23.238;2023-06-10T13:55:22;22.98;64.50
66752;SHT31;53663;42.676;23.238;2023-06-10T13:57:49;22.97;65.49
66752;SHT31;53663;42.676;23.238;2023-06-10T14:00:16;23.03;65.96
66752;SHT31;53663;42.676;23.238;2023-06-10T14:02:41;23.11;65.30
66752;SHT31;53663;42.676;23.238;2023-06-10T14:05:07;23.11;64.77
66752;SHT31;53663;42.676;23.238;2023-06-10T14:07:34;23.04;63.84
66752;SHT31;53663;42.676;23.238;2023-06-10T14:10:00;23.14;64.62
66752;SHT31;53663;42.676;23.238;2023-06-10T14:12:26;22.56;65.08
66752;SHT31;53663;42.676;23.238;2023-06-10T14:14:51;22.16;65.06
66752;SHT31;53663;42.676;23.238;2023-06-10T14:17:17;21.88;64.76
66752;SHT31;53663;42.676;23.238;2023-06-10T14:19:42;21.60;66.52
66752;SHT31;53663;42.676;23.238;2023-06-10T14:22:08;21.71;66.52
66752;SHT31;53663;42.676;23.238;2023-06-10T14:24:34;21.77;64.87
66752;SHT31;53663;42.676;23.238;2023-06-10T14:27:00;21.58;65.62
66752;SHT31;53663;42.676;23.238;2023-06-10T14:29:26;21.07;65.96
66752;SHT31;53663;42.676;23.238;2023-06-10T14:31:54;20.99;66.77
66752;SHT31;53663;42.676;23.238;2023-06-10T14:34:20;20.99;67.07
66752;SHT31;53663;42.676;23.238;2023-06-10T14:36:45;21.47;64.74
66752;SHT31;53663;42.676;23.238;2023-06-10T14:39:11;21.71;63.53
66752;SHT31;53663;42.676;23.238;2023-06-10T14:41:37;21.39;62.96
66752;SHT31;53663;42.676;23.238;2023-06-10T14:44:02;20.91;64.52
66752;SHT31;53663;42.676;23.238;2023-06-10T14:46:28;21.19;64.03
66752;SHT31;53663;42.676;23.238;2023-06-10T14:48:53;20.95;63.37
66752;SHT31;53663;42.676;23.238;2023-06-10T14:51:19;21.12;63.46
66752;SHT31;53663;42.676;23.238;2023-06-10T14:53:46;21.31;61.41
66752;SHT31;53663;42.676;23.238;2023-06-10T14:56:12;21.41;61.24
66752;SHT31;53663;42.676;23.238;2023-06-10T14:58:37;21.97;61.22
66752;SHT31;53663;42.676;23.238;2023-06-10T15:01:03;22.23;58.44
66752;SHT31;53663;42.676;23.238;2023-06-10T15:03:29;22.43;56.26
66752;SHT31;53663;42.676;23.238;2023-06-10T15:05:54;22.68;56.45
66752;SHT31;53663;42.676;23.238;2023-06-10T15:08:20;22.91;55.70
66752;SHT31;53663;42.676;23.238;2023-06-10T15:10:45;23.08;55.93
66752;SHT31;53663;42.676;23.238;2023-06-10T15:13:13;23.37;53.74
66752;SHT31;53663;42.676;23.238;2023-06-10T15:15:38;23.49;54.04
66752;SHT31;53663;42.676;23.238;2023-06-10T15:18:04;23.61;53.36
66752;SHT31;53663;42.676;23.238;2023-06-10T15:20:30;23.53;55.34
66752;SHT31;53663;42.676;23.238;2023-06-10T15:22:55;23.69;53.62
66752;SHT31;53663;42.676;23.238;2023-06-10T15:25:21;23.87;54.49
66752;SHT31;53663;42.676;23.238;2023-06-10T15:27:46;23.87;54.42
66752;SHT31;53663;42.676;23.238;2023-06-10T15:30:12;23.86;54.17
66752;SHT31;53663;42.676;23.238;2023-06-10T15:32:37;23.96;53.89
66752;SHT31;53663;42.676;23.238;2023-06-10T15:35:03;23.90;53.70
66752;SHT31;53663;42.676;23.238;2023-06-10T15:37:30;23.93;53.53